Time;durP1;ratioP1;P1;durP2;ratioP2;P2;SDS_P1;SDS_P2;PMS_P1;PMS_P2;Temp;Humidity;BMP_temperature;BMP_pressure;BME280_temperature;BME280_humidity;BME280_pressure;Samples;Min_cycle;Max_cycle;Signal;HPM_P1;HPM_P2
2022/11/08 00:01:46;;;;;;;17.60;3.33;;;;;;;11.97;100.00;100691.00;5046038;28;20110;-38
2022/11/08 00:04:13;;;;;;;19.23;2.70;;;;;;;11.99;100.00;100700.56;5035591;28;20025;-37
2022/11/08 00:14:52;;;;;;;13.50;2.42;;;;;;;11.97;100.00;100691.81;5040861;28;20074;-39
2022/11/08 00:17:18;;;;;;;10.98;2.63;;;;;;;11.97;100.00;100685.59;5050868;28;20339;-35
2022/11/08 00:19:45;;;;;;;17.95;3.53;;;;;;;11.93;100.00;100684.31;5052666;28;20411;-39
2022/11/08 00:22:11;;;;;;;20.10;2.72;;;;;;;11.93;100.00;100689.72;5051735;28;20067;-39
2022/11/08 00:24:36;;;;;;;17.25;3.13;;;;;;;11.90;100.00;100680.16;5048479;28;20119;-38
2022/11/08 00:27:07;;;;;;;13.20;2.97;;;;;;;11.88;100.00;100692.19;5052271;28;20064;-38
2022/11/08 00:29:36;;;;;;;15.50;2.92;;;;;;;11.86;100.00;100685.09;5040666;28;20057;-36
2022/11/08 00:32:04;;;;;;;14.73;3.03;;;;;;;11.85;100.00;100688.81;5039509;28;20144;-37
2022/11/08 00:34:29;;;;;;;20.33;2.73;;;;;;;11.86;100.00;100685.09;5041979;28;20029;-36
2022/11/08 00:36:54;;;;;;;11.88;2.67;;;;;;;11.87;100.00;100685.94;5038351;28;20321;-39
2022/11/08 00:39:20;;;;;;;18.63;3.15;;;;;;;11.86;100.00;100695.06;5048613;28;20033;-38
2022/11/08 00:41:45;;;;;;;21.52;3.03;;;;;;;11.84;100.00;100686.28;5045786;28;20052;-39
2022/11/08 00:44:11;;;;;;;24.15;3.30;;;;;;;11.85;100.00;100672.63;5038187;28;20033;-37
2022/11/08 00:46:37;;;;;;;22.45;2.95;;;;;;;11.84;100.00;100675.50;5033454;28;20037;-37
2022/11/08 00:49:04;;;;;;;18.50;2.90;;;;;;;11.83;100.00;100677.38;5032413;28;20116;-40
2022/11/08 00:51:29;;;;;;;20.48;2.97;;;;;;;11.79;100.00;100672.56;5039081;28;20056;-38
2022/11/08 00:53:55;;;;;;;27.77;3.10;;;;;;;11.73;100.00;100659.88;5048224;28;20037;-38
2022/11/08 00:56:20;;;;;;;11.93;3.63;;;;;;;11.70;100.00;100666.47;5039141;28;20025;-39
2022/11/08 00:58:45;;;;;;;14.82;2.60;;;;;;;11.72;100.00;100658.22;5042644;28;20426;-37
2022/11/08 01:01:14;;;;;;;22.95;3.65;;;;;;;11.71;100.00;100664.59;5039692;28;20057;-38
2022/11/08 01:03:39;;;;;;;11.15;2.40;;;;;;;11.69;100.00;100651.34;5043491;28;20025;-37
2022/11/08 01:06:06;;;;;;;16.20;2.95;;;;;;;11.68;100.00;100657.75;5047772;28;20029;-37
2022/11/08 01:08:32;;;;;;;10.07;2.27;;;;;;;11.64;100.00;100643.81;5050183;28;20029;-39
2022/11/08 01:11:02;;;;;;;9.68;2.47;;;;;;;11.62;100.00;100648.56;5053925;28;20441;-38
2022/11/08 01:13:28;;;;;;;14.40;2.88;;;;;;;11.62;100.00;100651.25;5052745;28;20029;-38
2022/11/08 01:15:53;;;;;;;16.67;2.67;;;;;;;11.61;100.00;100628.03;5047461;28;20444;-38
2022/11/08 01:18:19;;;;;;;15.90;2.80;;;;;;;11.62;100.00;100635.09;5049119;28;20047;-40
2022/11/08 01:20:46;;;;;;;14.63;2.75;;;;;;;11.64;100.00;100633.03;5035780;28;20037;-37
2022/11/08 01:23:12;;;;;;;12.73;2.47;;;;;;;11.65;100.00;100626.59;5042875;28;20103;-37
2022/11/08 01:25:39;;;;;;;10.95;2.53;;;;;;;11.65;100.00;100618.53;5047213;28;20032;-37
2022/11/08 01:28:05;;;;;;;23.63;3.67;;;;;;;11.63;100.00;100615.19;5031860;28;20032;-39
2022/11/08 01:30:30;;;;;;;9.18;2.55;;;;;;;11.65;100.00;100618.53;5036817;28;20430;-37
2022/11/08 01:32:55;;;;;;;11.95;2.50;;;;;;;11.65;100.00;100623.91;5037949;28;20191;-36
2022/11/08 01:35:21;;;;;;;12.68;2.63;;;;;;;11.69;100.00;100604.66;5037572;28;20029;-37
2022/11/08 01:37:46;;;;;;;18.40;2.50;;;;;;;11.67;100.00;100604.88;5037000;28;20034;-37
2022/11/08 01:40:12;;;;;;;9.98;2.35;;;;;;;11.67;100.00;100598.66;5031606;28;20547;-37
2022/11/08 01:42:37;;;;;;;11.57;2.45;;;;;;;11.69;100.00;100593.88;5038715;28;20122;-37
2022/11/08 01:45:03;;;;;;;13.93;2.85;;;;;;;11.71;100.00;100594.50;5043437;28;20489;-37
2022/11/08 01:47:28;;;;;;;15.32;2.45;;;;;;;11.71;100.00;100589.13;5050891;28;20083;-36
2022/11/08 01:49:56;;;;;;;11.45;2.38;;;;;;;11.71;100.00;100589.13;5049308;28;20510;-37
2022/11/08 01:52:31;;;;;;;10.90;2.47;;;;;;;11.71;100.00;100583.72;5038822;28;20025;-35
2022/11/08 01:55:18;;;;;;;9.90;2.05;;;;;;;11.75;100.00;100576.94;5046524;28;20034;-37
2022/11/08 01:57:49;;;;;;;11.13;2.17;;;;;;;11.74;100.00;100589.59;5029359;28;20029;-37
2022/11/08 02:00:15;;;;;;;19.15;2.20;;;;;;;11.72;100.00;100585.41;5041321;28;20029;-37
2022/11/08 02:02:43;;;;;;;14.40;2.60;;;;;;;11.73;100.00;100578.97;5045165;28;20043;-40
2022/11/08 02:05:23;;;;;;;17.67;2.40;;;;;;;11.74;100.00;100580.63;5034982;28;20117;-40
2022/11/08 02:07:51;;;;;;;14.23;2.50;;;;;;;11.74;100.00;100575.25;5037063;28;20029;-39
2022/11/08 02:10:17;;;;;;;9.93;1.95;;;;;;;11.76;100.00;100583.97;5046313;28;20043;-37
2022/11/08 02:12:43;;;;;;;16.75;2.70;;;;;;;11.78;100.00;100573.84;5029534;28;20515;-37
2022/11/08 02:15:09;;;;;;;10.52;2.13;;;;;;;11.81;100.00;100568.03;5039504;28;20163;-39
2022/11/08 02:17:34;;;;;;;11.23;2.40;;;;;;;11.80;100.00;100575.31;5031954;28;20286;-37
2022/11/08 02:19:59;;;;;;;9.02;2.22;;;;;;;11.77;100.00;100574.84;5039473;28;20129;-37
2022/11/08 02:22:32;;;;;;;10.40;1.80;;;;;;;11.79;100.00;100564.72;5044094;28;20029;-38
2022/11/08 02:24:59;;;;;;;8.52;2.00;;;;;;;11.76;100.00;100555.16;5032619;28;20029;-38
2022/11/08 02:27:24;;;;;;;11.27;2.58;;;;;;;11.79;100.00;100543.13;5031427;28;20029;-37
2022/11/08 02:29:53;;;;;;;10.77;2.10;;;;;;;11.77;100.00;100543.34;5031491;28;20032;-38
2022/11/08 02:32:19;;;;;;;11.80;1.95;;;;;;;11.72;100.00;100551.19;5046135;28;20394;-38
2022/11/08 02:34:57;;;;;;;11.32;2.40;;;;;;;11.69;100.00;100548.03;5043867;28;20112;-36
2022/11/08 02:37:24;;;;;;;8.68;1.90;;;;;;;11.67;100.00;100544.72;5033351;28;20033;-38
2022/11/08 02:39:51;;;;;;;16.73;3.22;;;;;;;11.71;100.00;100527.13;5047262;28;20033;-39
2022/11/08 02:42:18;;;;;;;17.10;2.28;;;;;;;11.71;100.00;100521.72;5044099;28;20025;-38
2022/11/08 02:44:47;;;;;;;15.07;2.63;;;;;;;11.73;100.00;100522.38;5033544;28;20033;-36
2022/11/08 02:47:13;;;;;;;10.65;2.03;;;;;;;11.73;100.00;100522.38;5032028;28;20041;-39
2022/11/08 02:49:38;;;;;;;8.73;2.20;;;;;;;11.72;100.00;100521.53;5049257;28;20383;-39
2022/11/08 02:52:04;;;;;;;14.50;2.42;;;;;;;11.68;100.00;100517.56;5044770;28;20028;-39
2022/11/08 02:54:29;;;;;;;8.90;2.35;;;;;;;11.64;100.00;100514.44;5040257;28;20091;-35
2022/11/08 02:56:56;;;;;;;10.80;2.22;;;;;;;11.58;100.00;100507.13;5030366;28;20039;-36
2022/11/08 02:59:22;;;;;;;11.77;2.42;;;;;;;11.57;100.00;100505.47;5030309;28;20435;-37
2022/11/08 03:01:47;;;;;;;12.98;2.38;;;;;;;11.56;100.00;100500.28;5040961;28;22501;-36
2022/11/08 03:04:12;;;;;;;6.30;2.10;;;;;;;11.55;100.00;100493.22;5047641;28;20435;-36
2022/11/08 03:06:38;;;;;;;11.45;2.33;;;;;;;11.52;100.00;100480.97;5045362;28;20037;-38
2022/11/08 03:09:03;;;;;;;13.98;2.08;;;;;;;11.47;100.00;100479.88;5032985;28;20029;-36
2022/11/08 03:11:29;;;;;;;12.80;2.83;;;;;;;11.34;100.00;100470.66;5040941;28;20080;-36
2022/11/08 03:13:54;;;;;;;12.10;2.67;;;;;;;11.24;100.00;100467.47;5042345;28;20029;-36
2022/11/08 03:16:19;;;;;;;13.52;2.40;;;;;;;11.21;100.00;100474.09;5030942;28;20655;-36
2022/11/08 03:18:45;;;;;;;12.93;2.40;;;;;;;11.18;100.00;100470.97;5036719;28;20542;-37
2022/11/08 03:21:10;;;;;;;13.90;2.92;;;;;;;11.12;100.00;100460.97;5052036;28;20025;-37
2022/11/08 03:23:36;;;;;;;10.10;2.75;;;;;;;11.04;100.00;100453.88;5045957;28;20025;-37
2022/11/08 03:26:02;;;;;;;9.02;2.55;;;;;;;10.99;100.00;100454.44;5050145;28;20045;-39
2022/11/08 03:28:27;;;;;;;9.48;2.38;;;;;;;10.91;100.00;100446.50;5039442;28;20033;-38
2022/11/08 03:30:53;;;;;;;11.35;2.97;;;;;;;10.89;100.00;100445.03;5038637;28;20068;-37
2022/11/08 03:33:19;;;;;;;14.77;4.25;;;;;;;10.83;100.00;100446.66;5046689;28;20025;-37
2022/11/08 03:35:46;;;;;;;15.43;3.00;;;;;;;10.79;100.00;100433.75;5036923;28;20041;-37
2022/11/08 03:38:11;;;;;;;21.52;3.20;;;;;;;10.79;100.00;100433.75;5047607;28;20040;-39
2022/11/08 03:40:36;;;;;;;14.52;2.53;;;;;;;10.76;100.00;100437.66;5054830;28;20032;-38
2022/11/08 03:43:02;;;;;;;12.70;3.63;;;;;;;10.76;100.00;100435.81;5053562;28;20082;-36
2022/11/08 03:45:27;;;;;;;11.00;2.92;;;;;;;10.73;100.00;100433.50;5037441;28;20032;-37
2022/11/08 03:47:52;;;;;;;12.30;3.15;;;;;;;10.73;100.00;100430.81;5039907;28;20116;-36
2022/11/08 03:50:18;;;;;;;13.30;2.70;;;;;;;10.69;100.00;100418.78;5037689;28;20025;-38
2022/11/08 03:52:43;;;;;;;8.77;2.88;;;;;;;10.71;100.00;100432.84;5045475;28;20055;-37
2022/11/08 03:55:09;;;;;;;15.15;2.90;;;;;;;10.62;100.00;100433.22;5040839;28;20029;-36
2022/11/08 03:57:35;;;;;;;13.50;3.85;;;;;;;10.61;100.00;100432.38;5047885;28;20028;-36
2022/11/08 04:00:01;;;;;;;8.60;2.60;;;;;;;10.59;100.00;100431.72;5040417;28;20029;-46
2022/11/08 04:02:26;;;;;;;12.00;2.50;;;;;;;10.59;100.00;100420.97;5032426;28;20136;-36
2022/11/08 04:04:51;;;;;;;14.63;2.83;;;;;;;10.57;100.00;100431.09;5032533;28;20075;-38
2022/11/08 04:07:17;;;;;;;12.57;2.75;;;;;;;10.55;100.00;100428.56;5047547;28;20032;-38
2022/11/08 04:09:42;;;;;;;9.43;2.60;;;;;;;10.50;100.00;100428.31;5035480;28;20033;-37
2022/11/08 04:23:03;;;;;;;9.52;2.67;;;;;;;10.45;100.00;100403.88;5038401;28;20097;-37
2022/11/08 04:25:29;;;;;;;14.32;2.30;;;;;;;10.45;100.00;100397.63;5050377;28;20061;-37
2022/11/08 04:27:54;;;;;;;9.32;2.30;;;;;;;10.46;100.00;100399.31;5048367;28;20076;-39
2022/11/08 04:30:19;;;;;;;15.80;2.60;;;;;;;10.46;100.00;100392.06;5035844;28;20757;-36
2022/11/08 04:32:44;;;;;;;10.18;2.42;;;;;;;10.47;100.00;100382.13;5040392;28;20033;-37
2022/11/08 04:35:10;;;;;;;12.45;3.10;;;;;;;10.52;100.00;100379.69;5038967;28;20032;-38
2022/11/08 04:37:35;;;;;;;14.02;3.17;;;;;;;10.54;100.00;100377.66;5033049;28;20026;-38
2022/11/08 04:40:00;;;;;;;8.18;2.17;;;;;;;10.53;100.00;100376.81;5034459;28;20453;-38
2022/11/08 04:42:26;;;;;;;7.95;2.20;;;;;;;10.56;100.00;100370.22;5049914;28;20044;-37
2022/11/08 04:44:51;;;;;;;11.63;2.60;;;;;;;10.58;100.00;100362.78;5034882;28;20483;-37
2022/11/08 04:47:16;;;;;;;11.20;2.35;;;;;;;10.58;100.00;100368.16;5045090;28;20275;-37
2022/11/08 04:49:42;;;;;;;8.27;2.53;;;;;;;10.56;100.00;100370.22;5032035;28;20082;-36
2022/11/08 04:52:07;;;;;;;9.35;2.50;;;;;;;10.51;100.00;100365.41;5029937;28;20029;-37
2022/11/08 04:54:32;;;;;;;13.48;2.63;;;;;;;10.51;100.00;100351.97;5028775;28;20143;-36
2022/11/08 04:56:58;;;;;;;11.98;2.47;;;;;;;10.49;100.00;100354.00;5045026;28;20036;-37
2022/11/08 04:59:23;;;;;;;9.90;2.83;;;;;;;10.48;100.00;100346.97;5032705;28;20037;-39
2022/11/08 05:01:48;;;;;;;9.43;2.53;;;;;;;10.49;100.00;100345.13;5034700;28;20369;-36
2022/11/08 05:04:14;;;;;;;6.18;2.40;;;;;;;10.50;100.00;100344.06;5048273;28;20556;-38
2022/11/08 05:06:39;;;;;;;9.13;2.60;;;;;;;10.51;100.00;100330.44;5040073;28;20040;-37
2022/11/08 05:09:04;;;;;;;12.15;2.40;;;;;;;10.53;100.00;100327.53;5039233;28;20029;-37
2022/11/08 05:11:30;;;;;;;7.43;2.55;;;;;;;10.52;100.00;100325.88;5047639;28;20100;-37
2022/11/08 05:13:56;;;;;;;7.65;2.00;;;;;;;10.49;100.00;100320.91;5044322;28;20079;-37
2022/11/08 05:16:24;;;;;;;8.93;2.30;;;;;;;10.54;100.00;100323.84;5038870;28;20031;-37
2022/11/08 05:18:50;;;;;;;7.75;2.10;;;;;;;10.53;100.00;100319.47;5062276;28;20036;-38
2022/11/08 05:24:02;;;;;;;6.63;2.10;;;;;;;10.63;100.00;100317.28;5039799;28;20048;-43
2022/11/08 05:26:28;;;;;;;14.90;2.83;;;;;;;10.66;100.00;100310.66;5031458;28;20021;-37
2022/11/08 05:28:54;;;;;;;6.32;2.33;;;;;;;10.63;100.00;100303.00;5031442;28;20029;-37
2022/11/08 05:31:19;;;;;;;10.70;2.38;;;;;;;10.65;100.00;100309.84;5049577;28;20029;-37
2022/11/08 05:33:44;;;;;;;8.40;2.70;;;;;;;10.64;100.00;100302.00;5046544;28;20033;-37
2022/11/08 05:36:11;;;;;;;8.95;2.33;;;;;;;10.64;100.00;100300.13;5036349;28;20320;-36
2022/11/08 05:38:37;;;;;;;6.85;1.83;;;;;;;10.66;100.00;100303.41;5046971;28;20147;-38
2022/11/08 05:41:17;;;;;;;4.75;2.80;;;;;;;10.67;100.00;100296.22;5046745;28;20671;-36
2022/11/08 05:43:44;;;;;;;9.90;2.50;;;;;;;10.68;100.00;100293.31;5035331;28;20028;-37
2022/11/08 05:46:10;;;;;;;10.50;3.28;;;;;;;10.72;100.00;100288.38;5041650;28;20028;-37
2022/11/08 05:48:35;;;;;;;5.57;2.10;;;;;;;10.78;100.00;100287.59;5039449;28;20032;-38
2022/11/08 05:51:01;;;;;;;8.70;2.53;;;;;;;10.76;100.00;100290.47;5043878;28;20552;-39
2022/11/08 05:53:27;;;;;;;8.70;2.53;;;;;;;10.82;100.00;100293.38;5038540;28;20033;-37
2022/11/08 05:55:58;;;;;;;8.20;2.25;;;;;;;10.82;100.00;100293.38;5041328;28;20036;-37
2022/11/08 05:58:23;;;;;;;12.82;2.40;;;;;;;10.81;100.00;100283.66;5043097;28;20025;-37
2022/11/08 06:00:48;;;;;;;8.02;2.47;;;;;;;10.79;100.00;100286.53;5036057;28;20508;-37
2022/11/08 06:03:14;;;;;;;13.30;2.45;;;;;;;10.73;100.00;100280.09;5041378;28;20620;-38
2022/11/08 06:05:39;;;;;;;4.43;2.20;;;;;;;10.66;100.00;100276.50;5031836;28;20099;-39
2022/11/08 06:08:05;;;;;;;3.88;2.03;;;;;;;10.62;100.00;100277.94;5034853;28;20022;-37
2022/11/08 06:10:30;;;;;;;8.05;2.00;;;;;;;10.66;100.00;100273.00;5044863;28;20115;-37
2022/11/08 06:13:02;;;;;;;7.78;2.40;;;;;;;10.64;100.00;100275.91;5043959;28;20025;-37
2022/11/08 06:15:27;;;;;;;8.73;2.35;;;;;;;10.62;100.00;100272.56;5038091;28;20037;-39
2022/11/08 06:17:52;;;;;;;9.55;2.20;;;;;;;10.62;100.00;100267.19;5035289;28;20033;-37
2022/11/08 06:20:18;;;;;;;7.05;2.22;;;;;;;10.65;100.00;100266.78;5049945;28;20043;-37
2022/11/08 06:22:43;;;;;;;13.63;2.55;;;;;;;10.62;100.00;100263.66;5030824;28;20040;-37
2022/11/08 06:25:09;;;;;;;6.18;2.10;;;;;;;10.64;100.00;100253.53;5039166;28;20501;-40
2022/11/08 06:27:35;;;;;;;7.95;1.85;;;;;;;10.61;100.00;100262.84;5031773;28;20123;-36
2022/11/08 06:30:01;;;;;;;8.60;1.92;;;;;;;10.68;100.00;100268.25;5026597;28;20231;-37
2022/11/08 06:32:26;;;;;;;8.73;1.83;;;;;;;10.79;100.00;100261.50;5040660;28;20029;-38
2022/11/08 06:34:51;;;;;;;11.98;2.30;;;;;;;10.82;100.00;100255.69;5041140;28;20041;-38
2022/11/08 06:37:17;;;;;;;10.68;2.70;;;;;;;10.85;100.00;100260.69;5039870;28;20037;-39
2022/11/08 06:39:43;;;;;;;3.80;2.20;;;;;;;10.83;100.00;100257.38;5043868;28;20037;-40
2022/11/08 06:42:09;;;;;;;9.35;2.00;;;;;;;10.83;100.00;100268.97;5042476;28;20560;-38
2022/11/08 06:44:34;;;;;;;8.68;2.08;;;;;;;10.95;100.00;100258.47;5041919;28;20041;-38
2022/11/08 06:47:00;;;;;;;5.45;2.08;;;;;;;11.07;100.00;100254.19;5044725;28;20457;-38
2022/11/08 06:49:25;;;;;;;2.95;1.70;;;;;;;11.04;100.00;100254.59;5043693;28;20434;-35
2022/11/08 06:51:51;;;;;;;5.05;1.80;;;;;;;11.08;100.00;100255.84;5044994;28;20086;-37
2022/11/08 06:54:17;;;;;;;7.60;2.20;;;;;;;11.12;100.00;100250.91;5044093;28;20061;-38
2022/11/08 06:56:42;;;;;;;9.63;3.05;;;;;;;11.17;100.00;100246.59;5040764;28;20083;-38
2022/11/08 06:59:08;;;;;;;11.00;2.60;;;;;;;11.15;100.00;100254.03;5041974;28;20069;-37
2022/11/08 07:01:35;;;;;;;9.50;2.58;;;;;;;11.17;100.00;100243.88;5039228;28;20033;-36
2022/11/08 07:04:00;;;;;;;5.72;2.20;;;;;;;11.16;100.00;100254.84;5040693;28;20048;-38
2022/11/08 07:06:25;;;;;;;9.88;2.00;;;;;;;11.15;100.00;100267.50;5042076;28;20029;-38
2022/11/08 07:08:51;;;;;;;5.40;2.20;;;;;;;11.25;99.85;100252.84;5047818;28;20025;-37
2022/11/08 07:11:16;;;;;;;3.83;1.77;;;;;;;11.29;99.59;100259.47;5046131;28;20049;-38
2022/11/08 07:13:41;;;;;;;7.72;2.17;;;;;;;11.29;99.59;100246.00;5045294;28;20040;-40
2022/11/08 07:16:08;;;;;;;5.38;2.20;;;;;;;11.34;99.46;100249.75;5044980;28;20107;-37
2022/11/08 07:18:33;;;;;;;5.30;2.15;;;;;;;11.34;99.13;100243.53;5044717;28;20064;-37
2022/11/08 07:21:00;;;;;;;5.45;1.83;;;;;;;11.36;99.18;100244.19;5047370;28;20146;-37
2022/11/08 07:23:25;;;;;;;7.15;2.38;;;;;;;11.43;98.08;100253.13;5043601;28;20044;-39
2022/11/08 07:25:50;;;;;;;4.20;1.73;;;;;;;11.40;98.20;100245.41;5043826;28;20072;-39
2022/11/08 07:28:17;;;;;;;11.63;2.40;;;;;;;11.43;98.53;100258.50;5045832;28;20090;-37
2022/11/08 07:30:47;;;;;;;11.68;2.10;;;;;;;11.41;98.45;100255.19;5044524;28;20025;-38
2022/11/08 07:33:13;;;;;;;3.95;2.05;;;;;;;11.50;97.74;100259.34;5042143;28;20327;-39
2022/11/08 07:35:38;;;;;;;8.52;2.40;;;;;;;11.52;97.92;100253.75;5047007;28;20029;-37
2022/11/08 07:38:04;;;;;;;7.72;2.30;;;;;;;11.53;97.58;100263.50;5047366;28;20488;-36
2022/11/08 07:40:29;;;;;;;6.35;1.83;;;;;;;11.55;97.52;100253.34;5046046;28;20061;-37
2022/11/08 07:42:58;;;;;;;6.85;1.83;;;;;;;11.57;97.13;100235.94;5044613;28;20056;-39
2022/11/08 07:45:24;;;;;;;6.88;2.17;;;;;;;11.60;97.16;100262.47;5024071;28;20380;-38
2022/11/08 07:48:03;;;;;;;5.82;1.92;;;;;;;11.63;96.42;100251.28;5031428;28;20075;-38
2022/11/08 07:50:28;;;;;;;13.80;2.22;;;;;;;11.67;96.19;100259.00;5045342;28;20371;-40
2022/11/08 07:52:54;;;;;;;5.20;2.00;;;;;;;11.74;95.21;100252.59;5044199;28;20079;-39
2022/11/08 07:55:19;;;;;;;14.75;1.95;;;;;;;11.75;95.66;100245.31;5043008;28;20119;-38
2022/11/08 07:57:45;;;;;;;6.38;1.95;;;;;;;11.78;94.90;100245.75;5046753;28;20095;-38
2022/11/08 08:00:11;;;;;;;10.43;1.75;;;;;;;11.83;94.35;100253.22;5045277;28;20043;-37
2022/11/08 08:02:36;;;;;;;7.88;2.17;;;;;;;11.84;94.50;100246.78;5045225;28;20535;-38
2022/11/08 08:05:01;;;;;;;8.25;1.90;;;;;;;11.89;94.50;100274.00;5039633;28;20072;-37
2022/11/08 08:07:27;;;;;;;4.60;1.90;;;;;;;11.92;94.41;100270.06;5042815;28;20029;-39
2022/11/08 08:09:52;;;;;;;8.75;2.00;;;;;;;11.88;94.36;100280.44;5045555;28;20506;-39
2022/11/08 08:12:17;;;;;;;10.88;2.50;;;;;;;11.95;94.06;100262.38;5043979;28;20065;-38
2022/11/08 08:14:43;;;;;;;11.15;1.95;;;;;;;11.95;93.54;100262.38;5043607;28;20083;-37
2022/11/08 08:17:09;;;;;;;6.65;1.70;;;;;;;11.91;93.81;100253.06;5046269;28;20083;-38
2022/11/08 08:19:34;;;;;;;6.15;1.88;;;;;;;11.91;93.61;100266.53;5046992;28;20341;-38
2022/11/08 08:21:59;;;;;;;4.28;1.77;;;;;;;11.91;93.49;100261.16;5047840;28;20493;-38
2022/11/08 08:24:25;;;;;;;6.00;1.98;;;;;;;11.92;93.94;100261.97;5048538;28;20104;-38
2022/11/08 08:26:51;;;;;;;6.47;2.10;;;;;;;11.93;93.67;100256.38;5046282;28;20116;-38
2022/11/08 08:29:16;;;;;;;6.05;1.85;;;;;;;11.98;92.88;100234.16;5048157;28;20048;-39
2022/11/08 08:31:41;;;;;;;12.65;2.20;;;;;;;12.00;92.80;100226.72;5044568;28;20485;-37
2022/11/08 08:34:06;;;;;;;8.38;2.10;;;;;;;12.06;92.54;100226.72;5047995;28;20545;-38
2022/11/08 08:36:32;;;;;;;9.40;2.08;;;;;;;12.14;91.85;100227.53;5044227;28;20434;-37
2022/11/08 08:38:57;;;;;;;6.18;1.83;;;;;;;12.09;91.52;100263.25;5046070;28;20368;-39
2022/11/08 08:41:22;;;;;;;9.02;2.55;;;;;;;12.10;91.85;100237.94;5047163;28;20481;-37
2022/11/08 08:43:48;;;;;;;13.48;1.80;;;;;;;12.14;91.51;100243.72;5049105;28;20371;-38
2022/11/08 08:46:13;;;;;;;9.35;2.00;;;;;;;12.08;91.68;100246.25;5048694;28;20498;-38
2022/11/08 08:48:38;;;;;;;3.97;1.70;;;;;;;12.12;91.06;100240.44;5050803;28;20036;-37
2022/11/08 08:51:05;;;;;;;5.88;1.65;;;;;;;12.13;91.65;100234.81;5045772;28;20093;-37
2022/11/08 08:53:30;;;;;;;4.38;1.80;;;;;;;12.14;91.27;100238.34;5048778;28;20037;-38
2022/11/08 08:55:56;;;;;;;13.90;2.03;;;;;;;12.14;91.98;100243.72;5048900;28;20028;-38
2022/11/08 08:58:21;;;;;;;6.55;2.10;;;;;;;12.24;91.29;100236.06;5049920;28;20025;-38
2022/11/08 09:00:47;;;;;;;4.10;1.50;;;;;;;12.31;90.80;100245.00;5043251;28;20087;-37
2022/11/08 09:03:12;;;;;;;7.90;1.80;;;;;;;12.30;90.33;100248.72;5048993;28;20013;-36
2022/11/08 09:05:42;;;;;;;7.55;1.95;;;;;;;12.29;90.68;100253.28;5048544;28;20533;-37
2022/11/08 09:08:11;;;;;;;7.63;2.05;;;;;;;12.28;90.22;100259.72;5047131;28;20041;-37
2022/11/08 09:10:37;;;;;;;2.38;1.70;;;;;;;12.28;90.72;100261.59;5050191;28;20346;-39
2022/11/08 09:13:03;;;;;;;6.68;1.73;;;;;;;12.30;90.69;100254.13;5049912;28;20025;-36
2022/11/08 09:15:28;;;;;;;4.95;1.45;;;;;;;12.38;90.93;100267.41;5048469;28;20044;-37
2022/11/08 09:17:53;;;;;;;4.50;1.77;;;;;;;12.43;90.35;100262.22;5048025;28;20025;-36
2022/11/08 09:20:19;;;;;;;4.75;1.67;;;;;;;12.38;90.02;100253.91;5047361;28;20111;-37
2022/11/08 09:22:44;;;;;;;7.10;1.88;;;;;;;12.41;89.76;100266.16;5047021;28;20021;-37
2022/11/08 09:25:10;;;;;;;3.50;1.95;;;;;;;12.42;89.89;100255.16;5045872;28;20256;-37
2022/11/08 09:27:35;;;;;;;6.57;1.70;;;;;;;12.44;89.64;100263.03;5045528;28;20398;-37
2022/11/08 09:30:00;;;;;;;7.90;2.17;;;;;;;12.44;90.05;100234.19;5045805;28;20102;-36
2022/11/08 09:32:27;;;;;;;6.07;1.80;;;;;;;12.51;89.56;100201.81;5046745;28;20338;-36
2022/11/08 09:34:54;;;;;;;4.45;1.70;;;;;;;12.55;89.34;100210.28;5044653;28;20136;-38
2022/11/08 09:37:19;;;;;;;5.10;1.83;;;;;;;12.48;89.59;100235.44;5044435;28;20556;-37
2022/11/08 09:39:45;;;;;;;6.45;1.63;;;;;;;12.56;89.98;100236.25;5048082;28;20029;-38
2022/11/08 09:42:38;;;;;;;4.65;2.00;;;;;;;12.69;90.19;100247.88;5048226;28;20438;-37
2022/11/08 09:45:10;;;;;;;11.40;2.10;;;;;;;12.71;89.64;100224.16;5045141;28;20068;-38
2022/11/08 09:47:41;;;;;;;5.88;2.03;;;;;;;12.80;89.75;100221.25;5046064;28;20028;-37
2022/11/08 09:50:14;;;;;;;4.85;1.58;;;;;;;12.78;89.19;100228.75;5045140;28;20181;-37
2022/11/08 09:52:41;;;;;;;4.18;1.67;;;;;;;12.70;89.57;100209.03;5045603;28;20273;-39
2022/11/08 09:55:34;;;;;;;5.47;1.88;;;;;;;12.74;89.67;100233.72;5045349;28;20033;-38
2022/11/08 09:58:05;;;;;;;4.43;2.10;;;;;;;12.71;89.48;100226.88;5043091;28;20595;-37
2022/11/08 10:00:38;;;;;;;4.28;1.65;;;;;;;12.76;89.26;100231.63;5045924;28;20060;-38
2022/11/08 10:03:04;;;;;;;3.80;1.73;;;;;;;12.78;88.93;100237.66;5043855;28;20025;-38
2022/11/08 10:05:37;;;;;;;3.35;1.85;;;;;;;12.83;88.22;100232.47;5044010;28;20045;-38
2022/11/08 10:08:10;;;;;;;4.55;1.63;;;;;;;12.87;88.04;100232.84;5042511;28;20057;-38
2022/11/08 10:10:57;;;;;;;6.40;1.70;;;;;;;12.94;88.48;100234.50;5027625;28;20149;-38
2022/11/08 10:13:32;;;;;;;2.88;1.50;;;;;;;12.98;88.29;100244.88;5044382;28;20045;-38
2022/11/08 10:16:32;;;;;;;4.32;1.50;;;;;;;13.10;87.80;100238.59;5041766;28;20390;-36
2022/11/08 10:19:10;;;;;;;4.55;1.75;;;;;;;13.21;86.40;100253.31;5044148;28;20394;-39
2022/11/08 10:22:04;;;;;;;8.68;2.03;;;;;;;13.28;85.97;100237.94;5046372;28;20045;-36
2022/11/08 10:24:34;;;;;;;6.78;1.55;;;;;;;13.28;86.43;100250.63;5041725;28;20037;-37
2022/11/08 10:27:00;;;;;;;3.10;1.70;;;;;;;13.28;86.49;100256.03;5043453;28;20029;-37
2022/11/08 10:29:30;;;;;;;7.50;1.85;;;;;;;13.25;86.28;100257.28;5027073;28;20055;-36
2022/11/08 10:32:00;;;;;;;3.63;1.70;;;;;;;13.23;86.29;100274.75;5043716;28;20371;-35
2022/11/08 10:34:28;;;;;;;7.03;1.75;;;;;;;13.28;86.94;100262.28;5042455;28;20029;-40
2022/11/08 10:36:59;;;;;;;3.58;1.58;;;;;;;13.21;87.33;100266.84;5058252;28;20460;-37
2022/11/08 10:39:30;;;;;;;4.47;1.70;;;;;;;13.18;87.63;100272.66;5044045;28;20033;-36
2022/11/08 10:41:59;;;;;;;8.77;1.88;;;;;;;13.16;87.81;100263.94;5041748;28;20040;-36
2022/11/08 10:44:25;;;;;;;3.08;1.73;;;;;;;13.22;87.62;100255.00;5045048;28;20107;-37
2022/11/08 10:46:56;;;;;;;4.47;1.92;;;;;;;13.46;87.10;100252.66;5027979;28;20025;-37
2022/11/08 10:49:23;;;;;;;7.50;1.77;;;;;;;13.66;85.96;100258.75;5045895;28;20121;-36
2022/11/08 10:51:55;;;;;;;4.63;1.60;;;;;;;13.86;85.86;100264.06;5043649;28;20032;-39
2022/11/08 10:54:51;;;;;;;5.95;2.15;;;;;;;13.90;84.61;100272.56;5039953;28;20120;-37
2022/11/08 10:57:23;;;;;;;5.68;1.80;;;;;;;13.83;84.75;100246.38;5039277;28;20021;-40
2022/11/08 10:59:49;;;;;;;4.28;1.70;;;;;;;13.98;85.91;100261.47;5039690;28;20483;-37
2022/11/08 11:02:27;;;;;;;3.83;2.10;;;;;;;14.17;84.87;100254.28;5042381;28;20064;-38
2022/11/08 11:05:17;;;;;;;11.38;2.08;;;;;;;14.17;83.84;100252.41;5042759;28;20016;-37
2022/11/08 11:07:45;;;;;;;7.75;2.00;;;;;;;14.10;83.69;100239.97;5044603;28;20025;-38
2022/11/08 11:10:15;;;;;;;4.32;1.70;;;;;;;14.15;83.81;100246.38;5045150;28;20498;-37
2022/11/08 11:12:41;;;;;;;5.78;1.83;;;;;;;14.25;84.04;100246.72;5044726;28;20037;-36
2022/11/08 11:15:13;;;;;;;7.88;2.03;;;;;;;14.04;84.00;100244.38;5045696;28;20037;-36
2022/11/08 11:17:38;;;;;;;8.25;1.90;;;;;;;14.21;83.91;100234.66;5045389;28;20040;-38
2022/11/08 11:20:04;;;;;;;5.07;2.08;;;;;;;14.43;83.19;100237.00;5044916;28;20033;-36
2022/11/08 11:22:32;;;;;;;7.85;2.10;;;;;;;14.49;82.44;100263.19;5046046;28;20068;-37
2022/11/08 11:25:05;;;;;;;5.10;1.88;;;;;;;14.60;82.31;100251.63;5046511;28;20036;-37
2022/11/08 11:27:36;;;;;;;14.40;2.20;;;;;;;14.54;81.87;100241.72;5044857;28;20037;-37
2022/11/08 11:30:23;;;;;;;5.30;2.33;;;;;;;14.40;83.00;100240.13;5039246;28;20033;-38
2022/11/08 11:33:02;;;;;;;3.88;1.98;;;;;;;14.53;82.86;100237.31;5044979;28;20451;-38
2022/11/08 11:35:36;;;;;;;9.60;2.60;;;;;;;14.79;82.16;100243.53;5045266;28;20120;-38
2022/11/08 11:38:03;;;;;;;4.43;1.90;;;;;;;14.81;81.62;100226.00;5044507;28;20032;-37
2022/11/08 11:40:36;;;;;;;8.25;1.88;;;;;;;15.14;80.22;100239.19;5041332;28;20143;-37